Time;durP1;ratioP1;P1;durP2;ratioP2;P2;SDS_P1;SDS_P2;PMS_P1;PMS_P2;Temp;Humidity;BMP_temperature;BMP_pressure;BME280_temperature;BME280_humidity;BME280_pressure;Samples;Min_cycle;Max_cycle;Signal;HPM_P1;HPM_P2
2023/02/19 00:02:24;;;;;;;0.00;0.00;;;;;;;14.94;48.00;99964.84;4335329;33;33319;-81
2023/02/19 00:04:52;;;;;;;0.10;0.03;;;;;;;14.70;48.46;99961.84;4336500;33;33432;-80
2023/02/19 00:07:20;;;;;;;0.75;0.30;;;;;;;14.78;48.28;99958.75;4335199;33;33140;-80
2023/02/19 00:09:47;;;;;;;0.43;0.15;;;;;;;14.90;47.94;99968.63;4335333;33;33816;-81
2023/02/19 00:12:15;;;;;;;0.10;0.10;;;;;;;14.77;48.16;99968.53;4338129;33;33975;-81
2023/02/19 00:14:43;;;;;;;0.43;0.30;;;;;;;14.87;48.03;99963.53;4338212;33;32542;-81
2023/02/19 00:17:11;;;;;;;0.00;0.00;;;;;;;14.99;47.74;99954.81;4344031;33;33434;-81
2023/02/19 00:19:39;;;;;;;0.35;0.35;;;;;;;14.76;48.37;99960.63;4324249;33;33821;-80
2023/02/19 00:22:06;;;;;;;0.10;0.10;;;;;;;14.74;48.36;99960.72;4337568;33;34125;-81
2023/02/19 00:24:34;;;;;;;0.00;0.00;;;;;;;14.75;48.42;99964.22;4344167;33;34135;-81
2023/02/19 00:27:01;;;;;;;0.10;0.10;;;;;;;14.97;48.18;99969.16;4337287;33;33900;-81
2023/02/19 00:29:29;;;;;;;0.10;0.10;;;;;;;14.82;48.52;99962.94;4343844;33;34757;-81
2023/02/19 00:31:57;;;;;;;0.10;0.10;;;;;;;14.79;48.63;99958.66;4337366;33;33937;-81
2023/02/19 00:34:26;;;;;;;0.05;0.05;;;;;;;15.13;47.98;99958.44;4336598;33;34123;-80
2023/02/19 00:36:53;;;;;;;0.15;0.00;;;;;;;15.14;47.98;99955.69;4340018;33;34538;-80
2023/02/19 00:39:21;;;;;;;0.13;0.10;;;;;;;14.98;48.84;99949.59;4322319;33;34120;-81
2023/02/19 00:41:49;;;;;;;0.22;0.20;;;;;;;15.09;48.74;99948.00;4338966;33;34534;-80
2023/02/19 00:44:17;;;;;;;0.00;0.00;;;;;;;15.29;48.36;99953.94;4343865;33;34138;-80
2023/02/19 00:46:48;;;;;;;0.70;0.70;;;;;;;15.29;48.49;99961.91;4336665;33;34638;-80
2023/02/19 00:49:20;;;;;;;0.20;0.20;;;;;;;14.98;49.05;99946.94;4331706;33;33477;-81
2023/02/19 00:51:50;;;;;;;4.37;1.17;;;;;;;14.78;49.65;99953.44;4337283;33;34494;-80
2023/02/19 00:54:21;;;;;;;0.90;0.28;;;;;;;14.81;49.49;99955.87;4339109;33;32759;-81
2023/02/19 00:56:49;;;;;;;0.50;0.50;;;;;;;14.81;49.68;99953.22;4337593;33;35052;-81
2023/02/19 00:59:17;;;;;;;0.22;0.22;;;;;;;14.94;48.98;99954.22;4336918;33;33935;-80
2023/02/19 01:01:45;;;;;;;0.55;0.30;;;;;;;14.88;48.99;99945.78;4338310;33;32505;-80
2023/02/19 01:04:13;;;;;;;0.10;0.10;;;;;;;14.87;48.68;99952.03;4338794;33;33030;-80
2023/02/19 01:06:40;;;;;;;0.00;0.00;;;;;;;15.05;48.30;99951.81;4334832;32;34260;-81
2023/02/19 01:09:08;;;;;;;0.85;0.75;;;;;;;15.15;48.24;99956.56;4331871;33;34399;-81
2023/02/19 01:11:36;;;;;;;0.62;0.62;;;;;;;15.12;48.23;99954.94;4339769;33;33562;-80
2023/02/19 01:14:04;;;;;;;0.25;0.25;;;;;;;14.95;48.70;99944.44;4343441;33;33921;-80
2023/02/19 01:16:32;;;;;;;1.25;1.05;;;;;;;14.86;48.98;99948.53;4344138;33;32714;-80
2023/02/19 01:19:00;;;;;;;0.10;0.10;;;;;;;14.84;48.85;99948.59;4332674;33;33717;-81
2023/02/19 01:21:28;;;;;;;2.47;0.98;;;;;;;14.81;49.02;99954.13;4326140;33;34060;-80
2023/02/19 01:23:57;;;;;;;0.40;0.40;;;;;;;14.84;48.98;99950.41;4339714;33;33949;-81
2023/02/19 01:26:28;;;;;;;0.00;0.00;;;;;;;14.69;49.43;99949.50;4335538;33;33334;-81
2023/02/19 01:28:57;;;;;;;0.80;0.80;;;;;;;14.66;49.44;99943.50;4337738;33;34683;-80
2023/02/19 01:31:25;;;;;;;0.00;0.00;;;;;;;14.75;49.12;99937.66;4338609;33;34005;-81
2023/02/19 01:33:56;;;;;;;3.35;0.52;;;;;;;14.60;49.57;99942.06;4323862;33;33648;-81
2023/02/19 01:36:24;;;;;;;0.00;0.00;;;;;;;14.59;49.68;99938.56;4343810;33;33649;-81
2023/02/19 01:38:52;;;;;;;4.22;0.80;;;;;;;14.69;49.73;99940.69;4336014;33;34698;-82
2023/02/19 01:41:23;;;;;;;0.00;0.00;;;;;;;14.05;51.49;99930.09;4338916;33;33461;-82
2023/02/19 01:43:58;;;;;;;0.57;0.57;;;;;;;14.51;50.41;99929.31;4331861;33;32920;-81
2023/02/19 01:46:28;;;;;;;0.20;0.20;;;;;;;14.34;51.03;99933.78;4343504;32;33607;-81
2023/02/19 01:48:58;;;;;;;0.32;0.32;;;;;;;14.54;50.49;99930.00;4337900;33;33589;-81
2023/02/19 01:51:27;;;;;;;0.45;0.45;;;;;;;14.52;50.63;99933.66;4323440;33;34068;-81
2023/02/19 01:53:58;;;;;;;0.10;0.10;;;;;;;14.48;50.74;99930.34;4338869;33;32782;-81
2023/02/19 01:56:26;;;;;;;0.00;0.00;;;;;;;13.88;52.00;99930.19;4336983;33;33758;-81
2023/02/19 01:58:54;;;;;;;0.00;0.00;;;;;;;14.31;50.93;99927.78;4337562;32;34358;-81
2023/02/19 02:01:21;;;;;;;0.05;0.05;;;;;;;14.54;50.38;99923.81;4356449;32;33307;-81
2023/02/19 02:03:50;;;;;;;6.37;0.77;;;;;;;14.20;51.32;99924.87;4352011;32;33319;-82
2023/02/19 02:06:32;;;;;;;0.45;0.28;;;;;;;13.80;52.37;99927.09;4347006;32;33550;-82
2023/02/19 02:11:51;;;;;;;0.10;0.10;;;;;;;14.09;51.85;99920.16;4349433;32;32296;-83
2023/02/19 02:14:23;;;;;;;1.08;0.70;;;;;;;14.18;52.13;99922.28;4343525;32;34164;-82
2023/02/19 02:17:10;;;;;;;0.55;0.03;;;;;;;14.43;51.81;99918.22;4346656;32;33427;-83
2023/02/19 02:19:54;;;;;;;0.10;0.10;;;;;;;13.77;54.17;99922.81;4357008;32;33858;-82
2023/02/19 02:22:57;;;;;;;0.00;0.00;;;;;;;13.65;55.28;99923.47;4353385;32;33593;-82
2023/02/19 02:25:46;;;;;;;0.10;0.10;;;;;;;13.86;55.07;99921.44;4352035;32;33926;-81
2023/02/19 02:28:43;;;;;;;0.10;0.10;;;;;;;14.28;53.88;99926.13;4353203;32;32492;-82
2023/02/19 02:31:15;;;;;;;0.10;0.10;;;;;;;14.00;54.68;99926.81;4354603;32;35731;-82
2023/02/19 02:33:48;;;;;;;0.00;0.00;;;;;;;14.38;53.77;99918.50;4346986;32;32498;-82
2023/02/19 02:36:28;;;;;;;0.32;0.15;;;;;;;14.03;55.07;99936.44;4345168;32;32419;-82
2023/02/19 02:38:57;;;;;;;1.75;0.52;;;;;;;13.85;55.78;99925.03;4345786;32;34209;-82
2023/02/19 02:41:25;;;;;;;0.30;0.30;;;;;;;14.27;54.51;99921.75;4339378;32;33506;-81
2023/02/19 02:43:52;;;;;;;0.00;0.00;;;;;;;14.25;54.64;99922.81;4346038;32;34282;-81
2023/02/19 02:46:29;;;;;;;0.00;0.00;;;;;;;13.74;55.97;99927.44;4347381;32;33450;-81
2023/02/19 02:49:04;;;;;;;0.95;0.13;;;;;;;14.03;55.11;99913.38;4346298;32;33140;-81
2023/02/19 02:51:38;;;;;;;0.30;0.10;;;;;;;14.32;54.44;99916.19;4345138;32;34757;-81
2023/02/19 02:57:19;;;;;;;0.00;0.00;;;;;;;13.62;55.91;99923.63;4336231;32;32403;-82
2023/02/19 02:59:48;;;;;;;0.05;0.05;;;;;;;13.94;55.04;99915.69;4346037;32;35079;-82
2023/02/19 03:02:21;;;;;;;0.00;0.00;;;;;;;13.98;54.87;99923.41;4345900;32;33778;-81
2023/02/19 03:07:54;;;;;;;0.10;0.10;;;;;;;13.45;55.88;99913.94;4354174;32;32987;-82
2023/02/19 03:10:26;;;;;;;0.10;0.10;;;;;;;13.99;54.66;99895.06;4346646;32;34495;-81
2023/02/19 03:21:21;;;;;;;0.10;0.10;;;;;;;13.79;54.79;99907.66;4335652;32;34161;-81
2023/02/19 03:26:37;;;;;;;0.00;0.00;;;;;;;13.49;55.21;99917.28;4347200;32;34344;-80
2023/02/19 03:29:24;;;;;;;0.00;0.00;;;;;;;13.86;54.26;99915.25;4348087;32;34043;-80
2023/02/19 03:31:57;;;;;;;0.00;0.00;;;;;;;13.45;55.02;99921.03;4346394;32;33545;-81
2023/02/19 03:34:33;;;;;;;0.00;0.00;;;;;;;13.62;54.54;99912.16;4346222;32;34331;-81
2023/02/19 03:37:11;;;;;;;0.00;0.00;;;;;;;13.42;54.93;99911.44;4344962;32;34602;-80
2023/02/19 03:39:43;;;;;;;0.00;0.00;;;;;;;13.89;53.73;99920.41;4329931;32;32678;-81
2023/02/19 03:42:29;;;;;;;0.03;0.03;;;;;;;14.07;53.33;99922.03;4352189;32;32713;-80
2023/02/19 03:45:23;;;;;;;0.17;0.17;;;;;;;14.06;53.77;99909.72;4354618;32;34626;-81
2023/02/19 03:48:14;;;;;;;0.00;0.00;;;;;;;13.79;54.74;99912.97;4341284;32;33722;-80
2023/02/19 03:51:05;;;;;;;0.00;0.00;;;;;;;13.67;55.41;99910.09;4347551;32;33081;-80
2023/02/19 03:53:54;;;;;;;0.00;0.00;;;;;;;13.77;55.20;99914.00;4347593;32;33117;-80
2023/02/19 03:56:34;;;;;;;0.00;0.00;;;;;;;13.46;55.81;99917.44;4343316;32;33314;-80
2023/02/19 03:59:12;;;;;;;0.00;0.00;;;;;;;13.58;56.00;99914.16;4345223;32;33601;-80
2023/02/19 04:01:43;;;;;;;0.20;0.20;;;;;;;13.40;56.72;99907.19;4341451;33;33369;-81
2023/02/19 04:04:30;;;;;;;0.00;0.00;;;;;;;13.50;56.49;99914.53;4342543;33;33801;-81
2023/02/19 04:06:59;;;;;;;0.10;0.10;;;;;;;13.30;57.10;99928.88;4355612;32;34547;-81
2023/02/19 04:09:47;;;;;;;0.10;0.10;;;;;;;13.39;56.67;99922.22;4341743;33;33826;-81
2023/02/19 04:12:17;;;;;;;0.00;0.00;;;;;;;13.50;56.21;99919.84;4339488;33;33220;-81
2023/02/19 04:15:06;;;;;;;0.52;0.43;;;;;;;12.99;57.68;99921.62;4343377;33;34556;-80
2023/02/19 04:17:44;;;;;;;0.10;0.10;;;;;;;13.39;56.68;99924.87;4342615;33;33002;-81
2023/02/19 04:20:13;;;;;;;0.00;0.00;;;;;;;13.63;56.02;99932.47;4339970;33;33294;-80
2023/02/19 04:22:40;;;;;;;0.10;0.10;;;;;;;13.68;55.75;99922.47;4340412;33;33442;-81
2023/02/19 04:25:08;;;;;;;0.32;0.32;;;;;;;13.45;56.43;99927.22;4341940;33;33818;-81
2023/02/19 04:27:37;;;;;;;1.75;0.43;;;;;;;13.50;56.22;99929.62;4342591;33;33016;-81
2023/02/19 04:30:06;;;;;;;0.10;0.05;;;;;;;13.59;55.86;99931.78;4348924;32;33558;-81
2023/02/19 04:32:34;;;;;;;1.30;0.45;;;;;;;13.37;56.24;99934.69;4343070;33;33334;-81
2023/02/19 04:35:02;;;;;;;0.03;0.03;;;;;;;13.62;55.48;99936.88;4344040;33;33833;-81
2023/02/19 04:37:29;;;;;;;0.00;0.00;;;;;;;13.57;55.59;99937.12;4355354;32;33354;-81
2023/02/19 04:39:57;;;;;;;0.00;0.00;;;;;;;13.63;55.45;99935.97;4337625;33;33871;-81
2023/02/19 04:42:25;;;;;;;0.10;0.10;;;;;;;13.64;55.36;99936.81;4327726;33;33360;-80
2023/02/19 04:44:52;;;;;;;0.00;0.00;;;;;;;13.73;55.01;99937.19;4350968;32;32797;-81
2023/02/19 04:47:20;;;;;;;0.00;0.00;;;;;;;13.57;55.49;99938.94;4338331;33;34057;-81
2023/02/19 04:49:49;;;;;;;0.00;0.00;;;;;;;13.42;55.98;99942.41;4351623;32;33524;-81
2023/02/19 04:52:17;;;;;;;1.30;0.68;;;;;;;13.63;55.33;99940.44;4329278;33;32904;-81
2023/02/19 04:54:45;;;;;;;0.00;0.00;;;;;;;13.76;55.36;99936.16;4328517;33;33421;-80
2023/02/19 04:57:12;;;;;;;0.00;0.00;;;;;;;13.23;57.04;99937.22;4339026;33;33442;-82
2023/02/19 04:59:40;;;;;;;0.00;0.00;;;;;;;13.40;56.77;99939.84;4339038;33;33607;-81
2023/02/19 05:02:07;;;;;;;5.68;0.95;;;;;;;13.52;56.63;99943.62;4347858;33;33176;-82
2023/02/19 05:04:35;;;;;;;0.10;0.10;;;;;;;13.56;56.60;99932.78;4341822;32;33893;-82
2023/02/19 05:07:03;;;;;;;0.00;0.00;;;;;;;13.60;56.60;99929.97;4344257;33;34402;-82
2023/02/19 05:09:31;;;;;;;0.00;0.00;;;;;;;13.61;56.55;99934.34;4344307;33;33623;-82
2023/02/19 05:11:58;;;;;;;0.95;0.30;;;;;;;13.72;56.24;99930.16;4343391;33;34323;-83
2023/02/19 05:14:26;;;;;;;0.10;0.10;;;;;;;13.64;56.57;99929.72;4341223;33;32767;-82
2023/02/19 05:16:54;;;;;;;0.25;0.25;;;;;;;13.74;56.32;99922.13;4352785;32;33817;-82
2023/02/19 05:19:22;;;;;;;0.22;0.22;;;;;;;13.71;56.48;99927.59;4341102;33;34407;-82
2023/02/19 05:21:49;;;;;;;0.00;0.00;;;;;;;13.78;56.21;99928.97;4351707;32;33641;-82
2023/02/19 05:24:17;;;;;;;0.05;0.03;;;;;;;13.92;55.73;99930.88;4321719;33;32820;-82
2023/02/19 05:26:47;;;;;;;0.30;0.30;;;;;;;13.90;55.71;99925.63;4344239;33;33723;-81
2023/02/19 05:29:14;;;;;;;0.00;0.00;;;;;;;13.65;56.31;99925.28;4337755;32;32842;-81
2023/02/19 05:31:42;;;;;;;0.55;0.55;;;;;;;13.57;56.48;99926.53;4352467;32;33205;-82
2023/02/19 05:34:10;;;;;;;0.47;0.45;;;;;;;13.79;56.01;99912.09;4327945;33;32419;-81
2023/02/19 05:36:38;;;;;;;0.85;0.32;;;;;;;13.54;56.61;99904.63;4338785;33;33317;-82
2023/02/19 05:39:06;;;;;;;0.00;0.00;;;;;;;13.26;57.88;99914.06;4320351;33;33104;-82
2023/02/19 05:41:34;;;;;;;0.00;0.00;;;;;;;13.17;57.91;99916.31;4351450;32;35011;-82
2023/02/19 05:44:01;;;;;;;0.30;0.20;;;;;;;12.51;59.99;99917.03;4350442;32;31917;-82
2023/02/19 05:46:29;;;;;;;0.22;0.22;;;;;;;13.15;58.09;99928.78;4331769;33;34552;-82
2023/02/19 05:48:57;;;;;;;0.00;0.00;;;;;;;13.50;57.07;99924.31;4341009;33;34066;-82
2023/02/19 05:51:25;;;;;;;0.25;0.22;;;;;;;13.45;57.76;99923.69;4340027;33;33578;-82
2023/02/19 05:53:55;;;;;;;0.88;0.88;;;;;;;12.85;59.74;99931.22;4339494;32;34505;-82
2023/02/19 05:56:28;;;;;;;0.10;0.10;;;;;;;13.18;58.85;99928.62;4343753;33;33940;-82
2023/02/19 05:58:56;;;;;;;0.00;0.00;;;;;;;13.04;59.44;99927.53;4332803;33;33161;-82
2023/02/19 06:01:26;;;;;;;0.88;0.88;;;;;;;12.78;60.44;99936.84;4343387;33;32344;-82
2023/02/19 06:03:55;;;;;;;0.22;0.22;;;;;;;12.96;59.96;99937.72;4341978;33;32863;-81
2023/02/19 06:06:25;;;;;;;0.60;0.47;;;;;;;13.07;59.63;99938.00;4339652;33;33383;-81
2023/02/19 06:08:53;;;;;;;0.00;0.00;;;;;;;13.18;59.23;99932.13;4329507;33;34035;-81
2023/02/19 06:11:21;;;;;;;0.68;0.65;;;;;;;13.53;58.15;99930.31;4339286;33;32872;-81
2023/02/19 06:13:49;;;;;;;0.30;0.30;;;;;;;13.70;57.61;99933.84;4328227;33;35244;-81
2023/02/19 06:16:17;;;;;;;0.32;0.32;;;;;;;13.76;57.40;99928.19;4341563;33;34728;-82
2023/02/19 06:18:45;;;;;;;0.80;0.80;;;;;;;13.64;57.67;99927.06;4341987;33;34872;-81
2023/02/19 06:21:13;;;;;;;0.00;0.00;;;;;;;13.80;57.17;99927.94;4339903;33;34275;-81
2023/02/19 06:23:41;;;;;;;0.00;0.00;;;;;;;13.82;57.22;99925.22;4337556;33;33529;-81
2023/02/19 06:26:18;;;;;;;0.55;0.40;;;;;;;13.95;56.93;99915.59;4340740;33;33833;-81
2023/02/19 06:28:48;;;;;;;0.47;0.47;;;;;;;13.71;57.67;99922.28;4325831;33;33887;-81
2023/02/19 06:31:16;;;;;;;0.00;0.00;;;;;;;13.80;57.39;99913.81;4337949;33;33176;-82
2023/02/19 06:33:44;;;;;;;0.10;0.10;;;;;;;13.82;57.16;99914.59;4338221;33;34491;-81
2023/02/19 06:36:14;;;;;;;0.20;0.20;;;;;;;13.87;57.04;99906.38;4336384;33;34054;-82
2023/02/19 06:38:42;;;;;;;0.70;0.52;;;;;;;13.78;57.25;99913.06;4339794;33;33333;-83
2023/02/19 06:41:11;;;;;;;0.10;0.10;;;;;;;13.93;56.74;99906.88;4339760;33;34306;-82
2023/02/19 06:43:40;;;;;;;0.85;0.85;;;;;;;14.04;56.50;99908.94;4337871;33;33627;-82
2023/02/19 06:46:09;;;;;;;0.52;0.43;;;;;;;13.70;57.30;99904.66;4341007;33;33015;-82
2023/02/19 06:48:37;;;;;;;0.65;0.65;;;;;;;13.84;56.93;99896.78;4339412;33;32863;-82
2023/02/19 06:51:05;;;;;;;0.17;0.10;;;;;;;13.65;57.48;99901.37;4338221;33;32581;-81
2023/02/19 06:53:33;;;;;;;0.68;0.17;;;;;;;13.70;57.44;99899.34;4352425;32;32359;-81
2023/02/19 06:56:04;;;;;;;0.28;0.28;;;;;;;13.55;57.75;99906.34;4333907;32;34660;-82
2023/02/19 06:58:32;;;;;;;0.30;0.30;;;;;;;13.65;57.00;99896.09;4339392;33;34998;-81
2023/02/19 07:01:00;;;;;;;0.30;0.30;;;;;;;13.68;57.15;99901.22;4325714;33;34227;-80
2023/02/19 07:03:28;;;;;;;0.20;0.20;;;;;;;13.60;57.38;99898.12;4351567;32;34644;-81
2023/02/19 07:05:58;;;;;;;1.08;0.43;;;;;;;13.03;58.80;99907.28;4340210;33;33285;-81
2023/02/19 07:08:26;;;;;;;1.05;0.47;;;;;;;13.17;58.67;99903.06;4338949;33;34916;-80
2023/02/19 07:10:56;;;;;;;0.32;0.32;;;;;;;13.71;56.71;99898.38;4338635;33;33321;-81
2023/02/19 07:13:25;;;;;;;0.00;0.00;;;;;;;13.80;56.38;99912.00;4338355;33;34242;-81
2023/02/19 07:16:01;;;;;;;0.00;0.00;;;;;;;13.46;57.55;99913.00;4325435;33;32899;-80
2023/02/19 07:18:30;;;;;;;0.57;0.47;;;;;;;13.86;56.24;99913.47;4325418;33;32540;-81
2023/02/19 07:21:09;;;;;;;0.40;0.40;;;;;;;13.57;56.85;99910.59;4340445;33;33694;-81
2023/02/19 07:23:37;;;;;;;0.52;0.52;;;;;;;13.48;57.20;99912.91;4337023;33;32603;-81
2023/02/19 07:26:08;;;;;;;0.40;0.40;;;;;;;13.32;57.58;99907.56;4346923;32;34155;-82
2023/02/19 07:28:35;;;;;;;0.65;0.52;;;;;;;13.24;57.46;99912.41;4335106;33;32772;-81
2023/02/19 07:31:03;;;;;;;1.37;1.33;;;;;;;13.09;57.74;99911.41;4338193;33;34349;-81
2023/02/19 07:33:31;;;;;;;1.17;1.08;;;;;;;12.52;59.06;99906.34;4325948;33;35635;-82
2023/02/19 07:35:59;;;;;;;4.62;0.82;;;;;;;12.82;58.42;99916.34;4331646;33;34253;-81
2023/02/19 07:38:27;;;;;;;0.00;0.00;;;;;;;13.25;57.07;99909.69;4333728;33;34184;-81
2023/02/19 07:41:01;;;;;;;0.85;0.85;;;;;;;12.97;59.39;99910.25;4338033;33;33669;-84
2023/02/19 07:43:31;;;;;;;2.42;1.48;;;;;;;12.76;61.38;99900.75;4338106;33;33175;-82
2023/02/19 07:46:07;;;;;;;0.00;0.00;;;;;;;13.08;61.04;99899.94;4339088;33;33856;-83
2023/02/19 07:48:35;;;;;;;0.00;0.00;;;;;;;13.29;60.77;99884.75;4341386;33;34123;-85
2023/02/19 07:51:06;;;;;;;0.70;0.55;;;;;;;13.45;60.29;99883.91;4337985;33;33294;-83
2023/02/19 07:53:34;;;;;;;0.00;0.00;;;;;;;13.71;59.40;99891.28;4326217;33;32441;-83
2023/02/19 07:56:04;;;;;;;0.00;0.00;;;;;;;13.67;59.55;99894.19;4326307;33;32916;-82
2023/02/19 07:58:33;;;;;;;0.43;0.43;;;;;;;13.74;59.88;99912.34;4336989;33;34093;-84
2023/02/19 08:01:10;;;;;;;0.10;0.10;;;;;;;13.81;59.79;99919.06;4337657;33;33239;-81
2023/02/19 08:03:39;;;;;;;0.17;0.17;;;;;;;13.34;61.88;99929.59;4349879;32;34045;-81
2023/02/19 08:06:07;;;;;;;0.00;0.00;;;;;;;13.52;62.03;99933.03;4337558;33;35432;-81
2023/02/19 08:08:36;;;;;;;0.37;0.00;;;;;;;13.02;63.88;99939.19;4338401;33;34735;-82
2023/02/19 08:13:53;;;;;;;0.50;0.50;;;;;;;13.19;64.79;99941.78;4321760;33;34533;-81
2023/02/19 08:16:21;;;;;;;0.20;0.20;;;;;;;13.12;65.51;99944.84;4338815;32;33836;-81
2023/02/19 08:19:08;;;;;;;0.00;0.00;;;;;;;13.13;65.58;99955.37;4338795;33;33671;-81
2023/02/19 08:21:36;;;;;;;0.10;0.10;;;;;;;13.42;65.02;99955.69;4337586;33;33219;-81
2023/02/19 08:24:04;;;;;;;0.00;0.00;;;;;;;13.61;64.58;99958.22;4340030;33;34320;-81
2023/02/19 08:26:32;;;;;;;0.13;0.13;;;;;;;13.60;64.36;99961.81;4325354;33;31425;-81
2023/02/19 08:29:02;;;;;;;0.00;0.00;;;;;;;13.57;64.60;99947.75;4339563;33;32773;-81
2023/02/19 08:31:31;;;;;;;0.10;0.10;;;;;;;13.62;64.68;99954.63;4338538;33;33502;-81
2023/02/19 08:33:59;;;;;;;0.20;0.20;;;;;;;13.44;65.07;99952.03;4337708;33;32584;-81
2023/02/19 08:36:27;;;;;;;0.90;0.43;;;;;;;13.19;66.07;99957.69;4351861;32;33736;-81
2023/02/19 08:38:54;;;;;;;0.80;0.80;;;;;;;13.42;65.11;99948.56;4340110;33;33529;-80
2023/02/19 08:41:22;;;;;;;2.10;0.75;;;;;;;13.23;65.64;99947.84;4339439;33;33338;-81
2023/02/19 08:43:49;;;;;;;1.55;1.45;;;;;;;13.64;64.16;99935.03;4340527;33;34350;-80
2023/02/19 08:46:17;;;;;;;0.62;0.57;;;;;;;13.23;65.25;99942.53;4333444;33;34004;-81
2023/02/19 08:48:45;;;;;;;1.40;0.75;;;;;;;13.47;64.37;99951.84;4328590;33;32786;-80
2023/02/19 08:51:12;;;;;;;0.60;0.60;;;;;;;13.49;64.07;99949.97;4338573;32;32368;-81
2023/02/19 08:53:42;;;;;;;2.37;1.73;;;;;;;13.47;64.05;99957.16;4337370;32;33362;-81
2023/02/19 08:56:12;;;;;;;2.83;2.55;;;;;;;13.51;64.29;99956.03;4350486;32;33832;-81
2023/02/19 08:58:39;;;;;;;1.95;1.15;;;;;;;13.14;65.36;99948.28;4337884;32;33799;-81
2023/02/19 09:01:12;;;;;;;1.12;0.65;;;;;;;12.82;66.65;99940.19;4352657;32;33917;-81
2023/02/19 09:03:41;;;;;;;1.37;1.23;;;;;;;13.20;65.39;99945.31;4346047;32;34655;-81
2023/02/19 09:06:17;;;;;;;1.23;1.12;;;;;;;13.08;65.87;99949.47;4352973;32;34181;-80
2023/02/19 09:08:45;;;;;;;0.95;0.95;;;;;;;13.12;65.52;99952.81;4346654;32;34320;-81
2023/02/19 09:11:13;;;;;;;2.17;1.98;;;;;;;13.16;65.66;99951.72;4347453;32;33819;-80
2023/02/19 09:13:42;;;;;;;3.30;1.25;;;;;;;13.48;64.74;99944.72;4341840;32;33579;-81
2023/02/19 09:16:10;;;;;;;1.27;1.23;;;;;;;13.17;65.59;99948.13;4345524;32;34516;-80
2023/02/19 09:18:38;;;;;;;1.23;1.12;;;;;;;13.07;66.03;99942.44;4352771;32;34814;-81
2023/02/19 09:21:06;;;;;;;0.37;0.37;;;;;;;13.08;66.01;99946.81;4333038;32;32901;-81
2023/02/19 09:23:34;;;;;;;1.37;1.00;;;;;;;13.50;64.38;99950.84;4352131;32;34893;-81
2023/02/19 09:26:06;;;;;;;0.93;0.90;;;;;;;13.64;63.53;99943.00;4350633;32;33687;-83
2023/02/19 09:28:34;;;;;;;14.05;4.00;;;;;;;12.90;65.76;99945.94;4345616;32;33871;-83
2023/02/19 09:31:06;;;;;;;4.00;2.25;;;;;;;12.80;66.24;99937.59;4345547;32;32856;-83
2023/02/19 09:33:34;;;;;;;;;;;;;;;13.00;65.17;99941.88;4333530;32;33567;-82
2023/02/19 09:36:02;;;;;;;6.45;1.85;;;;;;;12.87;65.68;99940.81;4341240;32;34425;-82
2023/02/19 09:38:29;;;;;;;3.95;2.12;;;;;;;12.67;66.08;99943.59;4334359;32;32288;-82
2023/02/19 09:40:58;;;;;;;0.43;0.43;;;;;;;12.44;66.54;99936.81;4341965;32;31754;-83
2023/02/19 09:43:27;;;;;;;4.43;1.33;;;;;;;12.44;66.65;99944.75;4345911;32;33937;-82
2023/02/19 09:46:02;;;;;;;1.30;1.20;;;;;;;12.89;65.36;99941.59;4345306;32;34750;-83
2023/02/19 09:48:31;;;;;;;2.17;1.15;;;;;;;12.90;65.29;99934.50;4350810;32;34188;-82
2023/02/19 09:51:00;;;;;;;1.37;1.35;;;;;;;13.06;64.76;99938.94;4344926;32;33627;-83
2023/02/19 09:53:38;;;;;;;7.20;3.20;;;;;;;12.94;65.26;99931.59;4346129;32;34262;-82
2023/02/19 09:56:07;;;;;;;2.20;1.50;;;;;;;12.97;65.55;99942.06;4355152;32;33533;-83
2023/02/19 09:58:45;;;;;;;3.20;2.08;;;;;;;13.07;65.19;99932.69;4350965;32;34250;-82
2023/02/19 10:01:13;;;;;;;3.55;3.25;;;;;;;13.07;64.85;99927.41;4351997;32;33275;-82
2023/02/19 10:03:45;;;;;;;0.93;0.93;;;;;;;13.40;64.17;99921.28;4340188;32;33450;-82
2023/02/19 10:06:19;;;;;;;5.12;1.87;;;;;;;13.41;64.76;99916.84;4345071;32;33893;-83
2023/02/19 10:08:50;;;;;;;0.52;0.52;;;;;;;13.75;64.05;99903.44;4344480;32;34276;-82
2023/02/19 10:11:18;;;;;;;2.25;2.05;;;;;;;13.73;64.46;99915.09;4344452;32;32359;-83
2023/02/19 10:13:48;;;;;;;1.15;1.05;;;;;;;13.67;65.02;99908.31;4345815;32;33184;-83
2023/02/19 10:16:19;;;;;;;1.00;0.82;;;;;;;13.75;64.82;99897.28;4346623;32;33262;-83
2023/02/19 10:18:47;;;;;;;1.27;1.23;;;;;;;13.91;63.90;99892.84;4330144;32;32706;-83
2023/02/19 10:21:20;;;;;;;1.17;1.10;;;;;;;14.40;63.61;99890.06;4354653;32;32470;-82
2023/02/19 10:23:52;;;;;;;1.73;1.30;;;;;;;14.42;64.27;99885.50;4343139;32;33818;-83
2023/02/19 10:26:21;;;;;;;0.75;0.75;;;;;;;14.69;63.02;99880.41;4329515;32;35943;-82
2023/02/19 10:28:49;;;;;;;5.47;1.98;;;;;;;14.62;63.25;99886.16;4333564;32;32967;-83
2023/02/19 10:31:21;;;;;;;1.87;1.05;;;;;;;14.84;63.03;99874.16;4344657;32;34007;-82
2023/02/19 10:33:56;;;;;;;0.28;0.28;;;;;;;14.42;64.15;99871.34;4352411;32;32943;-82
2023/02/19 10:36:35;;;;;;;0.40;0.40;;;;;;;15.32;61.88;99865.94;4329353;32;33723;-82
2023/02/19 10:39:21;;;;;;;0.00;0.00;;;;;;;15.81;60.57;99854.91;4352471;32;34267;-83
2023/02/19 10:41:50;;;;;;;0.60;0.50;;;;;;;16.26;57.79;99847.50;4350972;32;32133;-84
2023/02/19 10:44:26;;;;;;;0.20;0.20;;;;;;;15.83;56.79;99845.84;4331944;32;35116;-85
2023/02/19 10:46:57;;;;;;;1.30;0.57;;;;;;;16.15;55.61;99836.72;4349922;32;33455;-82
2023/02/19 10:49:32;;;;;;;0.08;0.05;;;;;;;16.41;55.03;99840.28;4342529;32;34131;-84
2023/02/19 10:52:16;;;;;;;1.42;1.02;;;;;;;16.19;54.02;99836.41;4343234;32;33619;-85
2023/02/19 10:54:45;;;;;;;0.37;0.37;;;;;;;15.99;55.30;99837.72;4345141;32;34639;-84
2023/02/19 10:57:28;;;;;;;1.05;0.65;;;;;;;15.97;53.49;99836.13;4346119;32;32808;-84
2023/02/19 11:00:00;;;;;;;0.73;0.73;;;;;;;16.52;52.45;99830.63;4346479;32;33788;-84
2023/02/19 11:02:30;;;;;;;0.28;0.28;;;;;;;16.64;52.38;99831.59;4338017;32;34300;-85
2023/02/19 11:05:15;;;;;;;0.25;0.10;;;;;;;16.32;52.56;99823.09;4337612;33;34485;-85
2023/02/19 11:07:45;;;;;;;1.17;0.98;;;;;;;16.12;52.96;99819.97;4343317;32;34030;-85
2023/02/19 11:10:22;;;;;;;0.80;0.65;;;;;;;16.13;52.65;99823.47;4336546;33;33934;-84
2023/02/19 11:12:51;;;;;;;0.28;0.25;;;;;;;16.34;51.83;99800.75;4343164;33;33506;-84
2023/02/19 11:15:28;;;;;;;0.10;0.10;;;;;;;16.56;52.24;99805.47;4341378;33;33479;-84
2023/02/19 11:18:09;;;;;;;0.10;0.10;;;;;;;16.51;50.30;99812.06;4342861;33;36176;-84
2023/02/19 11:20:55;;;;;;;0.93;0.40;;;;;;;16.81;48.41;99798.50;4336708;33;34306;-84
2023/02/19 11:23:29;;;;;;;1.17;0.65;;;;;;;16.98;49.18;99807.97;4336772;32;33218;-85
2023/02/19 11:26:00;;;;;;;0.20;0.20;;;;;;;17.03;48.04;99804.00;4330401;33;34298;-85
2023/02/19 11:28:31;;;;;;;0.17;0.17;;;;;;;17.39;46.64;99807.72;4337799;33;33843;-85
2023/02/19 11:31:18;;;;;;;0.40;0.40;;;;;;;16.98;47.46;99815.97;4330423;33;34132;-85
2023/02/19 11:33:56;;;;;;;0.00;0.00;;;;;;;16.46;48.69;99815.03;4343184;32;32789;-84
2023/02/19 11:36:27;;;;;;;0.65;0.65;;;;;;;16.94;47.39;99807.31;4339272;33;33358;-85
2023/02/19 11:38:58;;;;;;;0.28;0.28;;;;;;;17.24;45.31;99792.81;4341575;33;33894;-84
2023/02/19 11:41:38;;;;;;;1.73;0.70;;;;;;;17.34;45.42;99796.50;4337765;33;34455;-85
2023/02/19 11:44:18;;;;;;;0.05;0.00;;;;;;;17.59;44.79;99782.22;4330615;33;34290;-85
2023/02/19 11:47:18;;;;;;;0.17;0.13;;;;;;;17.77;44.44;99786.25;4330343;33;33748;-85
2023/02/19 11:50:03;;;;;;;0.22;0.22;;;;;;;17.90;44.64;99773.72;4320913;33;33931;-85
2023/02/19 11:52:46;;;;;;;0.20;0.20;;;;;;;18.21;43.91;99768.72;4330413;33;33751;-85
2023/02/19 11:55:16;;;;;;;0.13;0.13;;;;;;;18.36;43.35;99758.69;4329969;33;33230;-85
2023/02/19 11:57:57;;;;;;;0.10;0.10;;;;;;;18.35;43.74;99767.69;4342249;33;33806;-83
2023/02/19 12:00:27;;;;;;;0.40;0.40;;;;;;;18.02;43.10;99758.56;4338535;32;34898;-85
2023/02/19 12:03:29;;;;;;;0.25;0.25;;;;;;;17.91;43.42;99747.84;4337650;33;33971;-83
2023/02/19 12:06:02;;;;;;;0.20;0.20;;;;;;;17.55;44.48;99762.91;4350987;32;34512;-85
2023/02/19 12:08:39;;;;;;;0.00;0.00;;;;;;;17.64;44.36;99746.22;4346631;33;33829;-85
2023/02/19 12:11:15;;;;;;;0.20;0.20;;;;;;;18.16;42.22;99734.34;4348954;32;33155;-84
2023/02/19 12:14:21;;;;;;;0.15;0.08;;;;;;;17.71;42.28;99729.72;4338317;33;34215;-84
2023/02/19 12:17:21;;;;;;;0.00;0.00;;;;;;;17.90;42.57;99724.78;4354141;32;33592;-84
2023/02/19 12:19:57;;;;;;;0.10;0.10;;;;;;;18.00;42.67;99730.28;4348638;32;34055;-84